EHBK/MST METAR and TAF weather

Enter ICAO airport designator
Station Type Date Time Source
EHBK METAR 2022/06/30 13:25 UTC NOAA

EHBK 301325Z AUTO 09005KT 360V130 9999 NSC 25/15 Q1010 NOSIG


Station Type Date Time Source
EHBK Decoded METAR 2022/06/30 13:25 UTC NOAA

Maastricht Airport Zuid Limburg, Netherlands (EHBK) 50-55N 005-47E 116M
Jun 30, 2022 - 09:25 AM EDT / 2022.06.30 1325 UTC
Wind: from the E (090 degrees) at 6 MPH (5 KT) (direction variable):0
Visibility: greater than 7 mile(s):0
Temperature: 77 F (25 C)
Dew Point: 59 F (15 C)
Relative Humidity: 53%
Pressure (altimeter): 29.83 in. Hg (1010 hPa)
ob: EHBK 301325Z AUTO 09005KT 360V130 9999 NSC 25/15 Q1010 NOSIG
cycle: 13

Station Type Date Time Source
EHBK TAF 2022/06/30 12:27 UTC NOAA

TAF EHBK 301119Z 3012/0118 30008KT 9999 BKN045
BECMG 3013/3016 27010KT 6000 -RADZ BKN012 PROB30
TEMPO 3014/3018 30018G28KT 3000 SHRA TSRA SCT050CB
TEMPO 3016/3022 4000 DZ BKN008
BECMG 3019/3022 24008KT 9999 NSW SCT015 PROB30
TEMPO 3022/0107 BKN010

Example: see airport list